sensor_id;sensor_type;location;lat;lon;timestamp;temperature;humidity
13928;DHT22;7036;50.834;4.718;2023-06-24T05:47:19;25.90;53.80
13928;DHT22;7036;50.834;4.718;2023-06-24T05:49:45;26.00;53.80
13928;DHT22;7036;50.834;4.718;2023-06-24T05:52:12;26.00;54.10
13928;DHT22;7036;50.834;4.718;2023-06-24T05:54:39;26.00;54.40
13928;DHT22;7036;50.834;4.718;2023-06-24T05:57:06;26.10;54.10
13928;DHT22;7036;50.834;4.718;2023-06-24T05:59:33;26.10;54.20
13928;DHT22;7036;50.834;4.718;2023-06-24T06:02:00;26.10;54.30
13928;DHT22;7036;50.834;4.718;2023-06-24T06:04:27;26.10;54.30
13928;DHT22;7036;50.834;4.718;2023-06-24T06:06:54;26.10;54.40
13928;DHT22;7036;50.834;4.718;2023-06-24T06:09:21;26.10;54.20
13928;DHT22;7036;50.834;4.718;2023-06-24T06:11:48;26.20;54.40
13928;DHT22;7036;50.834;4.718;2023-06-24T06:14:15;26.20;54.40
13928;DHT22;7036;50.834;4.718;2023-06-24T06:16:42;26.20;54.40
13928;DHT22;7036;50.834;4.718;2023-06-24T06:19:09;26.20;54.50
13928;DHT22;7036;50.834;4.718;2023-06-24T06:21:36;26.30;54.50
13928;DHT22;7036;50.834;4.718;2023-06-24T06:24:04;26.30;54.60
13928;DHT22;7036;50.834;4.718;2023-06-24T06:26:31;26.30;54.50
13928;DHT22;7036;50.834;4.718;2023-06-24T06:28:58;26.30;54.50
13928;DHT22;7036;50.834;4.718;2023-06-24T06:31:25;26.30;54.50
13928;DHT22;7036;50.834;4.718;2023-06-24T06:33:52;26.30;54.60
13928;DHT22;7036;50.834;4.718;2023-06-24T06:36:18;26.40;54.80
13928;DHT22;7036;50.834;4.718;2023-06-24T06:38:45;26.40;54.70
13928;DHT22;7036;50.834;4.718;2023-06-24T06:41:12;26.40;54.70
13928;DHT22;7036;50.834;4.718;2023-06-24T06:43:39;26.40;54.60
13928;DHT22;7036;50.834;4.718;2023-06-24T06:46:06;26.50;54.60
13928;DHT22;7036;50.834;4.718;2023-06-24T06:48:33;26.40;54.50
13928;DHT22;7036;50.834;4.718;2023-06-24T06:51:00;26.50;54.60
13928;DHT22;7036;50.834;4.718;2023-06-24T06:53:27;26.50;54.50
13928;DHT22;7036;50.834;4.718;2023-06-24T06:55:54;26.50;54.60
13928;DHT22;7036;50.834;4.718;2023-06-24T06:58:21;26.50;54.60
13928;DHT22;7036;50.834;4.718;2023-06-24T07:00:48;26.50;54.50
13928;DHT22;7036;50.834;4.718;2023-06-24T07:03:15;26.50;54.40
13928;DHT22;7036;50.834;4.718;2023-06-24T07:05:42;26.60;54.50
13928;DHT22;7036;50.834;4.718;2023-06-24T07:08:09;26.60;54.40
13928;DHT22;7036;50.834;4.718;2023-06-24T07:10:36;26.60;54.40
13928;DHT22;7036;50.834;4.718;2023-06-24T07:13:03;26.60;54.40
13928;DHT22;7036;50.834;4.718;2023-06-24T07:15:30;26.60;54.30
13928;DHT22;7036;50.834;4.718;2023-06-24T07:17:56;26.60;54.30
13928;DHT22;7036;50.834;4.718;2023-06-24T07:20:24;26.60;54.30
13928;DHT22;7036;50.834;4.718;2023-06-24T07:22:50;26.70;54.30
13928;DHT22;7036;50.834;4.718;2023-06-24T07:25:17;26.60;54.20
13928;DHT22;7036;50.834;4.718;2023-06-24T07:27:44;26.60;54.20
13928;DHT22;7036;50.834;4.718;2023-06-24T07:30:12;26.60;54.20
13928;DHT22;7036;50.834;4.718;2023-06-24T07:32:39;26.70;56.30
13928;DHT22;7036;50.834;4.718;2023-06-24T07:35:06;26.70;54.40
13928;DHT22;7036;50.834;4.718;2023-06-24T07:37:34;26.70;54.60
13928;DHT22;7036;50.834;4.718;2023-06-24T07:40:01;26.70;54.40
13928;DHT22;7036;50.834;4.718;2023-06-24T07:42:27;26.70;54.60
13928;DHT22;7036;50.834;4.718;2023-06-24T07:44:54;26.70;54.60
13928;DHT22;7036;50.834;4.718;2023-06-24T07:47:21;26.70;54.50
13928;DHT22;7036;50.834;4.718;2023-06-24T07:49:51;26.70;54.50
13928;DHT22;7036;50.834;4.718;2023-06-24T07:52:18;26.80;54.60
13928;DHT22;7036;50.834;4.718;2023-06-24T07:54:45;26.80;54.70
13928;DHT22;7036;50.834;4.718;2023-06-24T07:57:12;26.80;54.80
13928;DHT22;7036;50.834;4.718;2023-06-24T07:59:39;26.80;54.80
13928;DHT22;7036;50.834;4.718;2023-06-24T08:02:05;26.80;54.80
13928;DHT22;7036;50.834;4.718;2023-06-24T08:04:32;26.80;54.70
13928;DHT22;7036;50.834;4.718;2023-06-24T08:06:59;26.80;54.70
13928;DHT22;7036;50.834;4.718;2023-06-24T08:09:26;26.80;54.70
13928;DHT22;7036;50.834;4.718;2023-06-24T08:11:53;26.80;54.70
13928;DHT22;7036;50.834;4.718;2023-06-24T08:14:20;26.80;54.80
13928;DHT22;7036;50.834;4.718;2023-06-24T08:16:47;26.80;54.70
13928;DHT22;7036;50.834;4.718;2023-06-24T08:19:14;26.80;54.70
13928;DHT22;7036;50.834;4.718;2023-06-24T08:21:41;26.90;54.70
13928;DHT22;7036;50.834;4.718;2023-06-24T08:24:08;26.80;54.70
13928;DHT22;7036;50.834;4.718;2023-06-24T08:26:35;26.90;54.70
13928;DHT22;7036;50.834;4.718;2023-06-24T08:29:03;26.80;54.60
13928;DHT22;7036;50.834;4.718;2023-06-24T08:31:29;26.80;54.60
13928;DHT22;7036;50.834;4.718;2023-06-24T08:33:58;26.90;54.60
13928;DHT22;7036;50.834;4.718;2023-06-24T08:36:23;26.90;54.50
13928;DHT22;7036;50.834;4.718;2023-06-24T08:38:50;26.90;54.50
13928;DHT22;7036;50.834;4.718;2023-06-24T08:41:17;26.90;54.60
13928;DHT22;7036;50.834;4.718;2023-06-24T08:43:44;26.90;54.50
13928;DHT22;7036;50.834;4.718;2023-06-24T08:46:11;26.90;54.50
13928;DHT22;7036;50.834;4.718;2023-06-24T08:48:38;26.90;54.40
13928;DHT22;7036;50.834;4.718;2023-06-24T08:51:04;26.90;54.40
13928;DHT22;7036;50.834;4.718;2023-06-24T08:53:31;26.90;54.30
13928;DHT22;7036;50.834;4.718;2023-06-24T08:55:58;26.90;54.30
13928;DHT22;7036;50.834;4.718;2023-06-24T08:58:25;26.90;54.20
13928;DHT22;7036;50.834;4.718;2023-06-24T09:00:52;26.90;54.20
13928;DHT22;7036;50.834;4.718;2023-06-24T09:03:19;26.90;54.10
13928;DHT22;7036;50.834;4.718;2023-06-24T09:05:46;26.90;54.10
13928;DHT22;7036;50.834;4.718;2023-06-24T09:08:13;26.90;53.90
13928;DHT22;7036;50.834;4.718;2023-06-24T09:10:40;26.90;54.10
13928;DHT22;7036;50.834;4.718;2023-06-24T09:13:07;26.90;54.70
13928;DHT22;7036;50.834;4.718;2023-06-24T09:15:37;26.90;54.60
13928;DHT22;7036;50.834;4.718;2023-06-24T09:18:04;26.90;54.30
13928;DHT22;7036;50.834;4.718;2023-06-24T09:20:31;26.90;53.90
13928;DHT22;7036;50.834;4.718;2023-06-24T09:22:58;26.90;53.40
13928;DHT22;7036;50.834;4.718;2023-06-24T09:25:24;26.90;53.80
13928;DHT22;7036;50.834;4.718;2023-06-24T09:27:51;26.90;53.00
13928;DHT22;7036;50.834;4.718;2023-06-24T09:30:22;26.90;53.00
13928;DHT22;7036;50.834;4.718;2023-06-24T09:32:49;26.90;52.90
13928;DHT22;7036;50.834;4.718;2023-06-24T09:35:19;26.90;52.80
13928;DHT22;7036;50.834;4.718;2023-06-24T09:37:56;26.90;52.90
13928;DHT22;7036;50.834;4.718;2023-06-24T09:40:21;26.90;53.10
13928;DHT22;7036;50.834;4.718;2023-06-24T09:42:54;26.90;52.80
13928;DHT22;7036;50.834;4.718;2023-06-24T09:45:26;26.90;52.80
13928;DHT22;7036;50.834;4.718;2023-06-24T09:47:55;26.90;52.80
13928;DHT22;7036;50.834;4.718;2023-06-24T09:50:22;26.90;52.80
13928;DHT22;7036;50.834;4.718;2023-06-24T09:52:49;26.90;52.90
13928;DHT22;7036;50.834;4.718;2023-06-24T09:55:16;26.90;53.00
13928;DHT22;7036;50.834;4.718;2023-06-24T09:57:44;26.90;53.10
13928;DHT22;7036;50.834;4.718;2023-06-24T10:00:10;26.90;53.00
13928;DHT22;7036;50.834;4.718;2023-06-24T10:02:39;26.90;53.00
13928;DHT22;7036;50.834;4.718;2023-06-24T10:05:05;26.90;52.90
13928;DHT22;7036;50.834;4.718;2023-06-24T10:07:32;27.00;54.20
13928;DHT22;7036;50.834;4.718;2023-06-24T10:10:01;27.00;53.00
13928;DHT22;7036;50.834;4.718;2023-06-24T10:12:26;27.00;53.20
13928;DHT22;7036;50.834;4.718;2023-06-24T10:14:53;27.00;53.10
13928;DHT22;7036;50.834;4.718;2023-06-24T10:17:20;27.00;52.90
13928;DHT22;7036;50.834;4.718;2023-06-24T10:19:47;26.90;52.90
13928;DHT22;7036;50.834;4.718;2023-06-24T10:22:14;26.90;52.50
13928;DHT22;7036;50.834;4.718;2023-06-24T10:24:41;26.90;52.20
13928;DHT22;7036;50.834;4.718;2023-06-24T10:27:20;26.90;52.20
13928;DHT22;7036;50.834;4.718;2023-06-24T10:29:46;26.90;52.00
13928;DHT22;7036;50.834;4.718;2023-06-24T10:32:12;26.90;52.00
13928;DHT22;7036;50.834;4.718;2023-06-24T10:34:43;26.90;51.50
13928;DHT22;7036;50.834;4.718;2023-06-24T10:40:00;26.90;51.80
13928;DHT22;7036;50.834;4.718;2023-06-24T10:42:31;26.90;51.60
13928;DHT22;7036;50.834;4.718;2023-06-24T10:45:01;26.90;51.70
13928;DHT22;7036;50.834;4.718;2023-06-24T10:47:27;26.90;51.70
13928;DHT22;7036;50.834;4.718;2023-06-24T10:49:53;26.90;51.70
13928;DHT22;7036;50.834;4.718;2023-06-24T10:52:21;26.90;51.90
13928;DHT22;7036;50.834;4.718;2023-06-24T10:54:50;26.90;51.90
13928;DHT22;7036;50.834;4.718;2023-06-24T10:57:20;27.00;52.00
13928;DHT22;7036;50.834;4.718;2023-06-24T10:59:46;26.90;51.90
13928;DHT22;7036;50.834;4.718;2023-06-24T11:02:13;26.90;52.00
13928;DHT22;7036;50.834;4.718;2023-06-24T11:04:50;26.90;52.00
13928;DHT22;7036;50.834;4.718;2023-06-24T11:07:22;26.90;52.20
13928;DHT22;7036;50.834;4.718;2023-06-24T11:09:49;26.90;52.50
13928;DHT22;7036;50.834;4.718;2023-06-24T11:12:15;26.90;52.20
13928;DHT22;7036;50.834;4.718;2023-06-24T11:14:42;26.90;52.20
13928;DHT22;7036;50.834;4.718;2023-06-24T11:17:09;26.90;52.40
13928;DHT22;7036;50.834;4.718;2023-06-24T11:19:36;26.90;52.50
13928;DHT22;7036;50.834;4.718;2023-06-24T11:22:03;26.90;52.70
13928;DHT22;7036;50.834;4.718;2023-06-24T11:24:30;26.90;52.90
13928;DHT22;7036;50.834;4.718;2023-06-24T11:26:57;27.00;53.10
13928;DHT22;7036;50.834;4.718;2023-06-24T11:29:24;26.90;52.80
13928;DHT22;7036;50.834;4.718;2023-06-24T11:31:51;26.90;52.90
13928;DHT22;7036;50.834;4.718;2023-06-24T11:34:18;27.00;53.20
13928;DHT22;7036;50.834;4.718;2023-06-24T11:36:45;27.00;52.50
13928;DHT22;7036;50.834;4.718;2023-06-24T11:39:21;26.90;52.40
13928;DHT22;7036;50.834;4.718;2023-06-24T11:41:48;27.00;52.60
13928;DHT22;7036;50.834;4.718;2023-06-24T11:44:16;27.00;52.80
13928;DHT22;7036;50.834;4.718;2023-06-24T11:46:42;27.00;52.50
13928;DHT22;7036;50.834;4.718;2023-06-24T11:49:09;27.00;52.60
13928;DHT22;7036;50.834;4.718;2023-06-24T11:51:36;26.90;52.70
13928;DHT22;7036;50.834;4.718;2023-06-24T11:54:03;27.00;52.90
13928;DHT22;7036;50.834;4.718;2023-06-24T11:56:36;27.00;52.90
13928;DHT22;7036;50.834;4.718;2023-06-24T11:59:21;26.90;52.80
13928;DHT22;7036;50.834;4.718;2023-06-24T12:01:45;27.00;52.80
13928;DHT22;7036;50.834;4.718;2023-06-24T12:04:14;27.00;52.70
13928;DHT22;7036;50.834;4.718;2023-06-24T12:06:41;27.00;52.80
13928;DHT22;7036;50.834;4.718;2023-06-24T12:09:11;27.00;53.10
13928;DHT22;7036;50.834;4.718;2023-06-24T12:11:38;27.00;53.10
13928;DHT22;7036;50.834;4.718;2023-06-24T12:14:05;27.00;53.00
13928;DHT22;7036;50.834;4.718;2023-06-24T12:16:32;27.00;53.20
13928;DHT22;7036;50.834;4.718;2023-06-24T12:18:59;27.00;53.40
13928;DHT22;7036;50.834;4.718;2023-06-24T12:21:26;27.00;53.40
13928;DHT22;7036;50.834;4.718;2023-06-24T12:23:53;27.00;53.70
13928;DHT22;7036;50.834;4.718;2023-06-24T12:26:20;27.00;53.60
13928;DHT22;7036;50.834;4.718;2023-06-24T12:28:46;27.00;53.70
13928;DHT22;7036;50.834;4.718;2023-06-24T12:31:13;27.00;53.70
13928;DHT22;7036;50.834;4.718;2023-06-24T12:33:40;27.00;53.90
13928;DHT22;7036;50.834;4.718;2023-06-24T12:36:07;26.10;55.00
13928;DHT22;7036;50.834;4.718;2023-06-24T12:38:34;26.20;54.40
13928;DHT22;7036;50.834;4.718;2023-06-24T12:41:01;27.00;54.10
13928;DHT22;7036;50.834;4.718;2023-06-24T12:43:28;27.00;54.10
13928;DHT22;7036;50.834;4.718;2023-06-24T12:45:55;27.00;54.20
13928;DHT22;7036;50.834;4.718;2023-06-24T12:48:22;27.00;54.20
13928;DHT22;7036;50.834;4.718;2023-06-24T12:50:49;27.10;54.00
13928;DHT22;7036;50.834;4.718;2023-06-24T12:53:16;27.00;53.90
13928;DHT22;7036;50.834;4.718;2023-06-24T12:55:43;27.10;54.00
13928;DHT22;7036;50.834;4.718;2023-06-24T12:58:10;27.00;54.00
13928;DHT22;7036;50.834;4.718;2023-06-24T13:00:37;27.10;54.00
13928;DHT22;7036;50.834;4.718;2023-06-24T13:03:04;27.00;52.90
13928;DHT22;7036;50.834;4.718;2023-06-24T13:05:31;27.10;52.90
13928;DHT22;7036;50.834;4.718;2023-06-24T13:07:58;27.10;52.90
13928;DHT22;7036;50.834;4.718;2023-06-24T13:10:25;27.10;52.60
13928;DHT22;7036;50.834;4.718;2023-06-24T13:12:51;27.10;52.30
13928;DHT22;7036;50.834;4.718;2023-06-24T13:15:18;27.10;52.40
13928;DHT22;7036;50.834;4.718;2023-06-24T13:17:45;27.10;52.50
13928;DHT22;7036;50.834;4.718;2023-06-24T13:20:12;27.00;52.50
13928;DHT22;7036;50.834;4.718;2023-06-24T13:22:39;27.10;52.60
13928;DHT22;7036;50.834;4.718;2023-06-24T13:25:06;27.10;52.00
13928;DHT22;7036;50.834;4.718;2023-06-24T13:27:34;27.00;51.70
13928;DHT22;7036;50.834;4.718;2023-06-24T13:30:01;27.00;51.40
13928;DHT22;7036;50.834;4.718;2023-06-24T13:32:28;27.00;51.20
13928;DHT22;7036;50.834;4.718;2023-06-24T13:34:55;27.00;51.10
13928;DHT22;7036;50.834;4.718;2023-06-24T13:37:22;27.00;51.20
13928;DHT22;7036;50.834;4.718;2023-06-24T13:39:48;27.00;51.70
13928;DHT22;7036;50.834;4.718;2023-06-24T13:42:15;27.00;50.80
13928;DHT22;7036;50.834;4.718;2023-06-24T13:44:42;27.00;51.10
13928;DHT22;7036;50.834;4.718;2023-06-24T13:47:09;27.00;50.50
13928;DHT22;7036;50.834;4.718;2023-06-24T13:49:37;27.00;50.50
13928;DHT22;7036;50.834;4.718;2023-06-24T13:52:04;27.00;50.40
13928;DHT22;7036;50.834;4.718;2023-06-24T13:54:30;27.00;50.80
13928;DHT22;7036;50.834;4.718;2023-06-24T13:56:57;27.00;50.50
13928;DHT22;7036;50.834;4.718;2023-06-24T13:59:24;27.00;49.60
13928;DHT22;7036;50.834;4.718;2023-06-24T14:01:52;27.10;50.90
13928;DHT22;7036;50.834;4.718;2023-06-24T14:04:21;27.00;49.50
13928;DHT22;7036;50.834;4.718;2023-06-24T14:06:47;27.10;49.40
13928;DHT22;7036;50.834;4.718;2023-06-24T14:09:14;27.00;49.00
13928;DHT22;7036;50.834;4.718;2023-06-24T14:11:41;27.10;49.40
13928;DHT22;7036;50.834;4.718;2023-06-24T14:14:08;27.00;49.30
13928;DHT22;7036;50.834;4.718;2023-06-24T14:16:35;27.10;49.30
13928;DHT22;7036;50.834;4.718;2023-06-24T14:19:02;27.10;49.50
13928;DHT22;7036;50.834;4.718;2023-06-24T14:21:29;27.10;49.50
13928;DHT22;7036;50.834;4.718;2023-06-24T14:23:56;27.10;49.30
13928;DHT22;7036;50.834;4.718;2023-06-24T14:26:23;27.10;49.60
13928;DHT22;7036;50.834;4.718;2023-06-24T14:28:50;27.10;49.40
13928;DHT22;7036;50.834;4.718;2023-06-24T14:31:17;27.10;49.20
13928;DHT22;7036;50.834;4.718;2023-06-24T14:33:43;27.10;49.00
13928;DHT22;7036;50.834;4.718;2023-06-24T14:36:10;27.10;55.60
13928;DHT22;7036;50.834;4.718;2023-06-24T14:38:37;27.20;52.00
13928;DHT22;7036;50.834;4.718;2023-06-24T14:41:04;27.20;56.00
13928;DHT22;7036;50.834;4.718;2023-06-24T14:43:31;27.20;48.60
13928;DHT22;7036;50.834;4.718;2023-06-24T14:45:58;27.20;48.50
13928;DHT22;7036;50.834;4.718;2023-06-24T14:48:25;27.20;48.40
13928;DHT22;7036;50.834;4.718;2023-06-24T14:50:52;27.20;48.40
13928;DHT22;7036;50.834;4.718;2023-06-24T14:53:19;27.30;48.40
13928;DHT22;7036;50.834;4.718;2023-06-24T14:55:46;27.30;48.50
13928;DHT22;7036;50.834;4.718;2023-06-24T14:58:13;27.30;48.40
13928;DHT22;7036;50.834;4.718;2023-06-24T15:00:39;27.30;48.50
13928;DHT22;7036;50.834;4.718;2023-06-24T15:03:06;27.30;48.30
13928;DHT22;7036;50.834;4.718;2023-06-24T15:05:33;27.30;48.10
13928;DHT22;7036;50.834;4.718;2023-06-24T15:08:00;27.30;48.10
13928;DHT22;7036;50.834;4.718;2023-06-24T15:10:27;27.40;48.00
13928;DHT22;7036;50.834;4.718;2023-06-24T15:12:54;27.40;47.70
13928;DHT22;7036;50.834;4.718;2023-06-24T15:15:21;27.40;47.70
13928;DHT22;7036;50.834;4.718;2023-06-24T15:17:48;27.40;47.60
13928;DHT22;7036;50.834;4.718;2023-06-24T15:20:15;27.50;47.40
13928;DHT22;7036;50.834;4.718;2023-06-24T15:22:42;27.40;47.30
13928;DHT22;7036;50.834;4.718;2023-06-24T15:25:09;27.50;47.30
13928;DHT22;7036;50.834;4.718;2023-06-24T15:27:36;27.50;47.30
13928;DHT22;7036;50.834;4.718;2023-06-24T15:30:03;26.60;51.90
13928;DHT22;7036;50.834;4.718;2023-06-24T15:32:30;27.50;47.00
13928;DHT22;7036;50.834;4.718;2023-06-24T15:34:57;27.50;47.00
13928;DHT22;7036;50.834;4.718;2023-06-24T15:37:24;27.50;47.20
13928;DHT22;7036;50.834;4.718;2023-06-24T15:39:51;27.50;47.00
13928;DHT22;7036;50.834;4.718;2023-06-24T15:42:18;27.50;47.10
13928;DHT22;7036;50.834;4.718;2023-06-24T15:44:45;27.50;47.00
13928;DHT22;7036;50.834;4.718;2023-06-24T15:47:12;27.60;46.90
13928;DHT22;7036;50.834;4.718;2023-06-24T15:49:39;27.60;46.80
13928;DHT22;7036;50.834;4.718;2023-06-24T15:52:06;27.60;46.80
13928;DHT22;7036;50.834;4.718;2023-06-24T15:54:33;27.50;46.70
13928;DHT22;7036;50.834;4.718;2023-06-24T15:57:00;27.50;46.60
13928;DHT22;7036;50.834;4.718;2023-06-24T15:59:27;27.60;46.60
13928;DHT22;7036;50.834;4.718;2023-06-24T16:01:54;27.60;46.50
13928;DHT22;7036;50.834;4.718;2023-06-24T16:04:21;27.60;46.50
13928;DHT22;7036;50.834;4.718;2023-06-24T16:06:48;27.60;46.20
13928;DHT22;7036;50.834;4.718;2023-06-24T16:09:15;27.60;46.20
13928;DHT22;7036;50.834;4.718;2023-06-24T16:11:42;27.60;46.00
13928;DHT22;7036;50.834;4.718;2023-06-24T16:14:09;27.60;45.90
13928;DHT22;7036;50.834;4.718;2023-06-24T16:16:36;27.60;45.50
13928;DHT22;7036;50.834;4.718;2023-06-24T16:19:03;27.60;45.60
13928;DHT22;7036;50.834;4.718;2023-06-24T16:21:31;27.60;45.60
13928;DHT22;7036;50.834;4.718;2023-06-24T16:23:57;27.50;45.40
13928;DHT22;7036;50.834;4.718;2023-06-24T16:26:24;27.60;45.60
13928;DHT22;7036;50.834;4.718;2023-06-24T16:28:51;27.60;45.60
13928;DHT22;7036;50.834;4.718;2023-06-24T16:31:18;27.60;45.60
13928;DHT22;7036;50.834;4.718;2023-06-24T16:33:46;27.60;45.50
13928;DHT22;7036;50.834;4.718;2023-06-24T16:36:13;27.50;45.30
13928;DHT22;7036;50.834;4.718;2023-06-24T16:38:40;27.50;45.40
13928;DHT22;7036;50.834;4.718;2023-06-24T16:41:07;27.50;45.20
13928;DHT22;7036;50.834;4.718;2023-06-24T16:43:33;27.50;45.10
13928;DHT22;7036;50.834;4.718;2023-06-24T16:46:01;27.50;45.20
13928;DHT22;7036;50.834;4.718;2023-06-24T16:48:28;27.40;45.00
13928;DHT22;7036;50.834;4.718;2023-06-24T16:50:55;27.50;45.30
13928;DHT22;7036;50.834;4.718;2023-06-24T16:53:22;27.50;45.20
13928;DHT22;7036;50.834;4.718;2023-06-24T16:55:49;27.50;44.60
13928;DHT22;7036;50.834;4.718;2023-06-24T16:58:16;27.40;45.10
13928;DHT22;7036;50.834;4.718;2023-06-24T17:00:43;27.40;45.40
13928;DHT22;7036;50.834;4.718;2023-06-24T17:03:09;27.40;45.60
13928;DHT22;7036;50.834;4.718;2023-06-24T17:05:36;27.40;45.30
13928;DHT22;7036;50.834;4.718;2023-06-24T17:08:06;27.40;45.60
13928;DHT22;7036;50.834;4.718;2023-06-24T17:10:33;27.40;45.00
13928;DHT22;7036;50.834;4.718;2023-06-24T17:13:00;27.40;45.00
13928;DHT22;7036;50.834;4.718;2023-06-24T17:15:27;27.40;45.20
13928;DHT22;7036;50.834;4.718;2023-06-24T17:17:54;27.40;45.40
13928;DHT22;7036;50.834;4.718;2023-06-24T17:20:21;27.40;45.70
13928;DHT22;7036;50.834;4.718;2023-06-24T17:22:47;27.40;46.70
13928;DHT22;7036;50.834;4.718;2023-06-24T17:25:14;27.40;46.00
13928;DHT22;7036;50.834;4.718;2023-06-24T17:27:41;27.40;45.80
13928;DHT22;7036;50.834;4.718;2023-06-24T17:30:08;27.40;45.60
13928;DHT22;7036;50.834;4.718;2023-06-24T17:32:35;27.40;45.60
13928;DHT22;7036;50.834;4.718;2023-06-24T17:35:02;27.40;45.40
13928;DHT22;7036;50.834;4.718;2023-06-24T17:37:29;27.40;45.70
13928;DHT22;7036;50.834;4.718;2023-06-24T17:39:56;27.40;45.90
13928;DHT22;7036;50.834;4.718;2023-06-24T17:42:23;27.50;46.00
13928;DHT22;7036;50.834;4.718;2023-06-24T17:44:51;27.40;45.90
13928;DHT22;7036;50.834;4.718;2023-06-24T17:47:18;27.40;45.60
13928;DHT22;7036;50.834;4.718;2023-06-24T17:49:45;27.40;45.60
13928;DHT22;7036;50.834;4.718;2023-06-24T17:52:12;27.40;45.70
13928;DHT22;7036;50.834;4.718;2023-06-24T17:54:39;27.30;45.40
13928;DHT22;7036;50.834;4.718;2023-06-24T17:57:07;27.40;45.60
13928;DHT22;7036;50.834;4.718;2023-06-24T17:59:33;27.30;45.50
13928;DHT22;7036;50.834;4.718;2023-06-24T18:02:00;27.30;45.50
13928;DHT22;7036;50.834;4.718;2023-06-24T18:04:27;27.30;45.50
13928;DHT22;7036;50.834;4.718;2023-06-24T18:06:54;27.30;45.40
13928;DHT22;7036;50.834;4.718;2023-06-24T18:09:21;27.30;46.10
13928;DHT22;7036;50.834;4.718;2023-06-24T18:11:48;27.30;45.60
13928;DHT22;7036;50.834;4.718;2023-06-24T18:14:15;27.30;45.70
13928;DHT22;7036;50.834;4.718;2023-06-24T18:16:49;27.30;45.60
13928;DHT22;7036;50.834;4.718;2023-06-24T18:19:15;27.30;45.90
13928;DHT22;7036;50.834;4.718;2023-06-24T18:21:42;27.30;45.80
13928;DHT22;7036;50.834;4.718;2023-06-24T18:24:09;27.30;45.70
13928;DHT22;7036;50.834;4.718;2023-06-24T18:26:36;27.30;45.70
13928;DHT22;7036;50.834;4.718;2023-06-24T18:29:03;27.30;45.70
13928;DHT22;7036;50.834;4.718;2023-06-24T18:31:29;27.30;46.00
13928;DHT22;7036;50.834;4.718;2023-06-24T18:33:56;27.30;46.00
13928;DHT22;7036;50.834;4.718;2023-06-24T18:36:23;27.30;46.10
13928;DHT22;7036;50.834;4.718;2023-06-24T18:38:50;27.30;46.10
13928;DHT22;7036;50.834;4.718;2023-06-24T18:41:17;27.30;46.20
13928;DHT22;7036;50.834;4.718;2023-06-24T18:43:44;27.30;46.10
13928;DHT22;7036;50.834;4.718;2023-06-24T18:46:11;27.30;46.30
13928;DHT22;7036;50.834;4.718;2023-06-24T18:48:38;27.30;46.50
13928;DHT22;7036;50.834;4.718;2023-06-24T18:51:05;27.30;46.70
13928;DHT22;7036;50.834;4.718;2023-06-24T18:53:32;27.30;46.70
13928;DHT22;7036;50.834;4.718;2023-06-24T18:55:59;27.30;46.80
13928;DHT22;7036;50.834;4.718;2023-06-24T18:58:25;27.30;46.80
13928;DHT22;7036;50.834;4.718;2023-06-24T19:00:52;27.30;46.80
13928;DHT22;7036;50.834;4.718;2023-06-24T19:03:19;27.30;46.90
13928;DHT22;7036;50.834;4.718;2023-06-24T19:05:46;27.30;47.20
13928;DHT22;7036;50.834;4.718;2023-06-24T19:08:13;27.30;47.20
13928;DHT22;7036;50.834;4.718;2023-06-24T19:10:40;27.30;47.30
13928;DHT22;7036;50.834;4.718;2023-06-24T19:13:07;27.20;47.30
13928;DHT22;7036;50.834;4.718;2023-06-24T19:15:34;27.20;47.60
13928;DHT22;7036;50.834;4.718;2023-06-24T19:18:02;27.20;47.90
13928;DHT22;7036;50.834;4.718;2023-06-24T19:20:28;27.20;48.00
13928;DHT22;7036;50.834;4.718;2023-06-24T19:22:55;27.20;48.00
13928;DHT22;7036;50.834;4.718;2023-06-24T19:25:22;27.70;50.80
13928;DHT22;7036;50.834;4.718;2023-06-24T19:27:49;27.20;48.00
13928;DHT22;7036;50.834;4.718;2023-06-24T19:30:16;27.30;48.10
13928;DHT22;7036;50.834;4.718;2023-06-24T19:32:43;27.30;48.20
13928;DHT22;7036;50.834;4.718;2023-06-24T19:35:10;27.30;48.20
13928;DHT22;7036;50.834;4.718;2023-06-24T19:37:36;27.30;48.20
13928;DHT22;7036;50.834;4.718;2023-06-24T19:40:03;27.30;48.30
13928;DHT22;7036;50.834;4.718;2023-06-24T19:42:30;27.30;48.30
13928;DHT22;7036;50.834;4.718;2023-06-24T19:44:57;27.30;48.30
13928;DHT22;7036;50.834;4.718;2023-06-24T19:47:24;27.30;48.40
13928;DHT22;7036;50.834;4.718;2023-06-24T19:49:53;27.30;48.60
13928;DHT22;7036;50.834;4.718;2023-06-24T19:52:18;27.30;48.40
13928;DHT22;7036;50.834;4.718;2023-06-24T19:54:49;27.30;48.50
13928;DHT22;7036;50.834;4.718;2023-06-24T19:57:18;27.30;48.60
13928;DHT22;7036;50.834;4.718;2023-06-24T19:59:42;27.30;48.60
13928;DHT22;7036;50.834;4.718;2023-06-24T20:02:09;27.30;48.70
13928;DHT22;7036;50.834;4.718;2023-06-24T20:04:36;27.30;48.70
13928;DHT22;7036;50.834;4.718;2023-06-24T20:07:04;27.30;48.80
13928;DHT22;7036;50.834;4.718;2023-06-24T20:09:32;27.30;49.00
13928;DHT22;7036;50.834;4.718;2023-06-24T20:11:58;27.30;48.90
13928;DHT22;7036;50.834;4.718;2023-06-24T20:14:25;27.30;48.90
13928;DHT22;7036;50.834;4.718;2023-06-24T20:16:52;27.30;49.00
13928;DHT22;7036;50.834;4.718;2023-06-24T20:19:19;27.30;49.00
13928;DHT22;7036;50.834;4.718;2023-06-24T20:21:46;27.30;49.00
13928;DHT22;7036;50.834;4.718;2023-06-24T20:24:13;27.30;49.10
13928;DHT22;7036;50.834;4.718;2023-06-24T20:26:40;27.30;49.20
13928;DHT22;7036;50.834;4.718;2023-06-24T20:29:07;27.30;49.20
13928;DHT22;7036;50.834;4.718;2023-06-24T20:31:34;27.30;49.20
13928;DHT22;7036;50.834;4.718;2023-06-24T20:34:01;27.30;49.40
13928;DHT22;7036;50.834;4.718;2023-06-24T20:36:28;27.30;49.30
13928;DHT22;7036;50.834;4.718;2023-06-24T20:38:54;27.30;49.40
13928;DHT22;7036;50.834;4.718;2023-06-24T20:41:22;27.30;49.50
13928;DHT22;7036;50.834;4.718;2023-06-24T20:43:49;27.20;49.50
13928;DHT22;7036;50.834;4.718;2023-06-24T20:46:17;27.30;49.70
13928;DHT22;7036;50.834;4.718;2023-06-24T20:48:44;27.30;49.60
13928;DHT22;7036;50.834;4.718;2023-06-24T20:51:11;27.20;49.60
13928;DHT22;7036;50.834;4.718;2023-06-24T20:53:38;27.20;49.60
13928;DHT22;7036;50.834;4.718;2023-06-24T20:56:05;27.30;49.70
13928;DHT22;7036;50.834;4.718;2023-06-24T20:58:31;27.20;49.70
13928;DHT22;7036;50.834;4.718;2023-06-24T21:00:58;27.30;49.80
13928;DHT22;7036;50.834;4.718;2023-06-24T21:03:25;27.30;49.80
13928;DHT22;7036;50.834;4.718;2023-06-24T21:05:52;27.30;49.80
13928;DHT22;7036;50.834;4.718;2023-06-24T21:08:19;27.20;49.80
13928;DHT22;7036;50.834;4.718;2023-06-24T21:10:46;27.20;49.90
13928;DHT22;7036;50.834;4.718;2023-06-24T21:13:13;27.20;49.90
13928;DHT22;7036;50.834;4.718;2023-06-24T21:15:40;27.20;49.90
13928;DHT22;7036;50.834;4.718;2023-06-24T21:18:07;27.20;50.00
13928;DHT22;7036;50.834;4.718;2023-06-24T21:20:34;27.20;50.10
13928;DHT22;7036;50.834;4.718;2023-06-24T21:23:01;27.20;50.10
13928;DHT22;7036;50.834;4.718;2023-06-24T21:25:28;27.20;50.10
13928;DHT22;7036;50.834;4.718;2023-06-24T21:27:55;27.20;50.20
13928;DHT22;7036;50.834;4.718;2023-06-24T21:30:22;27.20;50.30
13928;DHT22;7036;50.834;4.718;2023-06-24T21:32:49;27.20;50.40